Résultats de la compétition "Régionale des Jeunes" du 22-11-2009 organisée par le club 5907
     
  Télécharger le fichier CSV.  
     
     

 Circuit "A"

Licence Nom Prénom Temps CN
précédent
Score sur
la course
Différence
1233CREFCOEURPhilippe0:58:5060455359-686
20178TSIRTSIKOLOUArnaud0:59:0239655341+1376
6999MAHIEUPierre0:59:3260795296-783
18826CRETERémi1:00:5749275173+246
17574LEQUINTRémi1:02:4557925025-767
12468RADONDYDaniel1:03:2760844969-1115
10782MAILLARDLudovic1:04:3558394882-957
16280DANELJerome1:07:0954954696-799
9629SMIRNOVKonstantin1:07:3957564661-1095
15895LACHAUMEPatrick1:08:2937734604+831
11524CAROULLEYannick1:09:40N/A4526N/A
13757PRINSGregory1:10:0649724498-474
4808DASILVAFernando1:11:2949434411-532
18651DROGOULMatthieu1:11:4339034397+494
15831GOLECCharly1:12:3828364341+1505
18355BRUNOOlivier1:17:2040554077+22
17630CATAlain1:17:37N/A4062N/A
18874ROBARTSébastien1:18:11N/A4033N/A
20774MESMACQUEFabien1:20:08N/A3935N/A
12466BUCKMANFranck1:20:1534303929+499
20550REGNIEZErwan1:29:45N/A3513N/A
18662NEUVILLEChristian1:38:3736983197-501
16961PARMENTFabien1:39:2726103171+561
18448RICQUEBOURGAxel1:40:04N/A3151N/A
658QUEYROIStephane1:43:2640803048-1032
722FLICOTEAUXRaphaelN/A61610-6161
17576JOLYPhilippeN/A57770-5777
6998FONTAINEThibaultN/AN/A0N/A

  Indice de confiance du circuit (moyenne des différences entre CN et score sur la course des 3 à 10 premiers) : 577




 Circuit "B"

Licence Nom Prénom Temps CN
précédent
Score sur
la course
Différence
14665SZYMANOWSKIValentin0:55:4234175439+2022
18786SCHIMPFLaurent1:04:3539084691+783
8081LEGEREPascal1:11:2852364239-997
7200SZYMANOWSKIFabrice1:12:1546254193-432
16399GENCEEric1:12:4640354163+128
16397CLAIRETRichard1:13:3336424119+477
14227DESRUMAUXMarie1:16:3648063955-851
20214PECQUEURFlorian1:16:4444673948-519
22219THOMASJulien1:17:06N/A3929N/A
8445FINASCeline1:18:4749403845-1095
22718DUPONTFabrice1:20:02N/A3785N/A
11669GEIRNARTMarc1:20:3234183762+344
19699GOBERTAlain1:20:5933483741+393
12744PRECLINStephane1:21:1134023732+330
11434SAUVAGEElsa1:24:2544373589-848
10079PAPINPhilippe1:27:2337653467-298
17686MAERTELAEREHugues1:32:56N/A3260N/A
18803BECARTBernard1:40:5335153003-512
20511MASSOULIÉJean-pierre1:44:53N/A2888N/A
20722MOREAU-DESCOINGSFrançois2:06:01N/A2404N/A
20952LOUCHARTVictor2:08:01N/A2366N/A
21311LE TETOURCharles-adrien2:10:09N/A2328N/A
5421LOTERIEJ-FrancoisN/A57040-5704
16143WANTIERLoicN/A37970-3797
14228BISQUERTChristopheN/A31930-3193

  Indice de confiance du circuit (moyenne des différences entre CN et score sur la course des 3 à 10 premiers) : 609




 Circuit "C"

Licence Nom Prénom Temps CN
précédent
Score sur
la course
Différence
7049LEROYSimon0:43:3176115952-1659
1947POULAINJoel0:51:1453125056-256
16233DEPRETThomas0:53:0750084877-131
16398GRIMBERTHerve0:57:3232534502+1249
19240MAZYFrançois-rémi0:58:3137974427+630
7215LEROYJacques0:58:5143894401+12
9171POULAINYannick1:00:4240454267+222
8947BOULANGERPatrick1:01:3838954203+308
1814LERICHEFranck1:03:0746204104-516
16281BIZOTLaurent1:04:1439374033+96
12963CASTIERPhilippe1:05:3541753950-225
17572TESSIERPatrick1:05:3735213948+427
20405CHAPUSStanislas1:06:47N/A3879N/A
2892MOULIERECamille1:08:1544873795-692
9165BAILLEULJ-Paul1:08:4040363772-264
17345LARGILLERELucien1:08:5047733763-1010
8180L'HUILLIERPhilippe1:09:4133153717+402
13838BOUTINDominique1:10:2434683679+211
18789BAERTEtienne1:12:1228183588+770
14900PRESSONBernard1:13:0834893542+53
13270ROUXCatherine1:14:4036053469-136
9523WULLUSJ-Noel1:15:0035963454-142
9427LERICHEClotilde1:15:4046713423-1248
17979DOUGUETDavid1:20:3925763212+636
18632CUVILLIERSPerrine1:22:3435453137-408
21418ASTOLFIJudith1:24:39N/A3060N/A
16102BAILLYBertrand1:25:58N/A3013N/A
7044LOTERIEMurielle1:28:3840452922-1123
16205HUMBERTCLAUDEJ-Paul1:31:2832762832-444
21056VAN HONACKERPascal1:47:19N/A2414N/A
21417ASTOLFIFrédéric1:49:31N/A2365N/A
17664DRAMEZFrederic2:00:3920042147+143
14911LAMINETTEPaulineN/A36830-3683
19136TANTARTDelphineN/A36990-3699
9164TORZDidierN/A32620-3262

  Indice de confiance du circuit (moyenne des différences entre CN et score sur la course des 3 à 10 premiers) : 282




 Circuit "D"

Licence Nom Prénom Temps CN
précédent
Score sur
la course
Différence
20195DESOOMERJean-jacques0:52:15N/A3708N/A
18312GERBEAUXNathanaëlle0:56:3036063429-177
20200LEPERQUEOphelie0:57:2930173370+353
2878PATURETBertrand0:59:3642983251-1047
7216LEROYOdile1:04:3131933003-190
20177WATRELOTJulien1:05:0517062977+1271
22373DELCUSESébastien1:06:51N/A2898N/A
20676DELINSELLEAlexis1:09:43N/A2779N/A
6995DECARPIGNYGwladys1:09:5540522771-1281
18827CRETEAngélique1:10:1130332760-273
18298DUPONTLaurent1:13:08N/A2649N/A
18805CAUWETSamuel1:16:58N/A2517N/A
10766ROBYNLaurence1:17:1438532509-1344
20029GOBERTAlexandre1:18:0522352481+246
20199VIEILLEMarine1:19:51N/A2426N/A
13645LEGRANDMurielle1:21:1921672383+216
20572GUILMAINMelanie1:23:40N/A2316N/A
1948POULAINOdile1:24:1226952301-394
10639BOULANGERIsabelle1:27:2929452215-730
19155GOURLAINMarguerite-marie1:28:1020202197+177
20213DECOOPMANClémentine1:28:2220972192+95
17899DEPERSINIsabelle1:28:2529642191-773
22433MALAKNathan1:31:10N/A2125N/A
13272CZERNIAKSidonie1:33:5120922064-28
20684STRATMAINSLudovic1:34:14N/A2056N/A
21224SIXThibaut1:36:18N/A2012N/A
20425PECQUEURSylvie1:58:2415571636+79
22447LALOUXClément2:18:10N/A1402N/A
7045LOTERIELaurineN/A38460-3846
19241VADURELPaulineN/A34740-3474
18661CUVILLIERSChristopheN/A18080-1808

  Indice de confiance du circuit (moyenne des différences entre CN et score sur la course des 3 à 10 premiers) : 353




 Circuit "E"

Licence Nom Prénom Temps CN
précédent
Score sur
la course
Différence
18213LARGILLÈRENicolas1:05:0624773367+890
21160LEGRANDPauline1:15:58N/A2885N/A
22250PARENTMathilde1:18:16N/A2800N/A
21461PRINSSandrine1:18:17N/A2800N/A
17344LARGILLEREEugenie1:18:5328262779-47
22651ARROQUIPhilippe1:26:41N/A2529N/A
22620LEROYEmmanuelle1:32:21N/A2373N/A
10081TORZ-DRUONMagali1:40:3527182179-539
18828CRETECamille1:52:4218891945+56
22512GRESSIERTheo1:54:33N/A1913N/A
22257DASSONNEVILLEMichelN/AN/A0N/A
19238CAMASMandyeN/A28900-2890
21323VANOVERBERGHECamilleN/AN/A0N/A

  Indice de confiance du circuit (moyenne des différences entre CN et score sur la course des 3 à 10 premiers) : 511




 Circuit "F"

Licence Nom Prénom Temps CN
précédent
Score sur
la course
Différence
22370RADONDYThéo0:43:17N/A3247N/A
9172POULAINGael0:44:1627733174+401
14245RICHARDNicole0:49:5231362818-318
2885LECOYERAnnick0:50:2127432791+48
15894LUDEWIG-JAMESCarol1:00:4723832312-71
22237VANOVERBERGHENathalie1:10:33N/A1992N/A
21156GOBERTJeanne1:18:30N/A1790N/A
22580BUFFETMaxence1:20:34N/A1744N/A
18829CRETEJulietteN/A13760-1376

  Indice de confiance du circuit (moyenne des différences entre CN et score sur la course des 3 à 10 premiers) : 354




 Circuit "G"

Licence Nom Prénom Temps CN
précédent
Score sur
la course
Différence
22157BULLIERRomain0:49:21N/A2185N/A
18830CRETEJulien0:53:3820072010+3
22159SENDRONKathleen0:58:34N/A1841N/A
22549LECUYERManon1:21:07N/A1329N/A
22258DASSONNEVILLERomain1:54:35N/A941N/A
22240KOUASSILewis1:54:37N/A941N/A

  Indice de confiance du circuit (moyenne des différences entre CN et score sur la course des 3 à 10 premiers) : 469




 Circuit "H"

Licence Nom Prénom Temps CN
précédent
Score sur
la course
Différence
22228SELVEValentin0:36:52N/A2127N/A
22238VANOVERBERGHEMathilde0:39:23N/A1991N/A
22540URVOYMateo0:41:22N/A1896N/A
22517D'ANNUNZIOSophie1:19:44N/A984N/A
22520D'ANNUNZIONoa1:19:54N/A981N/A

  Indice de confiance du circuit (moyenne des différences entre CN et score sur la course des 3 à 10 premiers) : 420






 Retour